sensor_id;sensor_type;location;lat;lon;timestamp;temperature;humidity
9175;DHT22;54374;50.196;8.050;2022-07-29T00:00:40;16.60;99.90
9175;DHT22;54374;50.196;8.050;2022-07-29T00:03:10;16.60;99.90
9175;DHT22;54374;50.196;8.050;2022-07-29T00:05:38;16.70;99.90
9175;DHT22;54374;50.196;8.050;2022-07-29T00:08:07;16.60;99.90
9175;DHT22;54374;50.196;8.050;2022-07-29T00:10:35;16.50;99.90
9175;DHT22;54374;50.196;8.050;2022-07-29T00:13:02;16.50;99.90
9175;DHT22;54374;50.196;8.050;2022-07-29T00:15:29;16.50;99.90
9175;DHT22;54374;50.196;8.050;2022-07-29T00:18:00;16.50;99.90
9175;DHT22;54374;50.196;8.050;2022-07-29T00:20:50;16.50;99.90
9175;DHT22;54374;50.196;8.050;2022-07-29T00:23:18;16.40;99.90
9175;DHT22;54374;50.196;8.050;2022-07-29T00:25:48;16.20;99.90
9175;DHT22;54374;50.196;8.050;2022-07-29T00:28:15;16.10;99.90
9175;DHT22;54374;50.196;8.050;2022-07-29T00:30:42;16.10;99.90
9175;DHT22;54374;50.196;8.050;2022-07-29T00:33:09;16.10;99.90
9175;DHT22;54374;50.196;8.050;2022-07-29T00:35:36;16.10;99.90
9175;DHT22;54374;50.196;8.050;2022-07-29T00:38:14;16.10;99.90
9175;DHT22;54374;50.196;8.050;2022-07-29T00:40:43;16.10;99.90
9175;DHT22;54374;50.196;8.050;2022-07-29T00:43:10;16.10;99.90
9175;DHT22;54374;50.196;8.050;2022-07-29T00:45:38;16.10;99.90
9175;DHT22;54374;50.196;8.050;2022-07-29T00:48:06;16.00;99.90
9175;DHT22;54374;50.196;8.050;2022-07-29T00:50:34;16.00;99.90
9175;DHT22;54374;50.196;8.050;2022-07-29T00:53:03;16.00;99.90
9175;DHT22;54374;50.196;8.050;2022-07-29T00:55:32;16.00;99.90
9175;DHT22;54374;50.196;8.050;2022-07-29T00:58:00;15.90;99.90
9175;DHT22;54374;50.196;8.050;2022-07-29T01:00:28;16.00;99.90
9175;DHT22;54374;50.196;8.050;2022-07-29T01:02:56;15.90;99.90
9175;DHT22;54374;50.196;8.050;2022-07-29T01:05:25;15.90;99.90
9175;DHT22;54374;50.196;8.050;2022-07-29T01:07:54;15.90;99.90
9175;DHT22;54374;50.196;8.050;2022-07-29T01:10:22;15.80;99.90
9175;DHT22;54374;50.196;8.050;2022-07-29T01:12:51;15.80;99.90
9175;DHT22;54374;50.196;8.050;2022-07-29T01:15:21;15.80;99.90
9175;DHT22;54374;50.196;8.050;2022-07-29T01:17:52;15.70;99.90
9175;DHT22;54374;50.196;8.050;2022-07-29T01:20:26;15.70;99.90
9175;DHT22;54374;50.196;8.050;2022-07-29T01:23:13;15.50;99.90
9175;DHT22;54374;50.196;8.050;2022-07-29T01:29:08;15.40;99.90
9175;DHT22;54374;50.196;8.050;2022-07-29T01:31:43;15.20;99.90
9175;DHT22;54374;50.196;8.050;2022-07-29T01:34:16;15.10;99.90
9175;DHT22;54374;50.196;8.050;2022-07-29T01:36:48;15.10;99.90
9175;DHT22;54374;50.196;8.050;2022-07-29T01:39:19;15.10;99.90
9175;DHT22;54374;50.196;8.050;2022-07-29T01:41:53;15.00;99.90
9175;DHT22;54374;50.196;8.050;2022-07-29T01:44:28;15.00;99.90
9175;DHT22;54374;50.196;8.050;2022-07-29T01:47:01;14.90;99.90
9175;DHT22;54374;50.196;8.050;2022-07-29T01:49:32;14.70;99.90
9175;DHT22;54374;50.196;8.050;2022-07-29T01:52:03;14.50;99.90
9175;DHT22;54374;50.196;8.050;2022-07-29T01:54:35;14.30;99.90
9175;DHT22;54374;50.196;8.050;2022-07-29T01:57:04;14.20;99.90
9175;DHT22;54374;50.196;8.050;2022-07-29T01:59:36;14.20;99.90
9175;DHT22;54374;50.196;8.050;2022-07-29T02:02:04;14.20;99.90
9175;DHT22;54374;50.196;8.050;2022-07-29T02:04:36;14.20;99.90
9175;DHT22;54374;50.196;8.050;2022-07-29T02:07:06;14.30;99.90
9175;DHT22;54374;50.196;8.050;2022-07-29T02:09:35;14.20;99.90
9175;DHT22;54374;50.196;8.050;2022-07-29T02:12:04;14.20;99.90
9175;DHT22;54374;50.196;8.050;2022-07-29T02:14:38;14.10;99.90
9175;DHT22;54374;50.196;8.050;2022-07-29T02:17:06;14.00;99.90
9175;DHT22;54374;50.196;8.050;2022-07-29T02:19:34;14.00;99.90
9175;DHT22;54374;50.196;8.050;2022-07-29T02:22:05;13.80;99.90
9175;DHT22;54374;50.196;8.050;2022-07-29T02:24:34;13.70;99.90
9175;DHT22;54374;50.196;8.050;2022-07-29T02:27:03;13.70;99.90
9175;DHT22;54374;50.196;8.050;2022-07-29T02:29:31;13.70;99.90
9175;DHT22;54374;50.196;8.050;2022-07-29T02:32:01;13.70;99.90
9175;DHT22;54374;50.196;8.050;2022-07-29T02:34:29;13.60;99.90
9175;DHT22;54374;50.196;8.050;2022-07-29T02:36:57;13.60;99.90
9175;DHT22;54374;50.196;8.050;2022-07-29T02:39:25;13.50;99.90
9175;DHT22;54374;50.196;8.050;2022-07-29T02:41:57;13.50;99.90
9175;DHT22;54374;50.196;8.050;2022-07-29T02:44:27;13.30;99.90
9175;DHT22;54374;50.196;8.050;2022-07-29T02:47:02;13.40;99.90
9175;DHT22;54374;50.196;8.050;2022-07-29T02:49:35;13.40;99.90
9175;DHT22;54374;50.196;8.050;2022-07-29T02:52:04;13.30;99.90
9175;DHT22;54374;50.196;8.050;2022-07-29T02:54:39;13.20;99.90
9175;DHT22;54374;50.196;8.050;2022-07-29T02:57:20;13.30;99.90
9175;DHT22;54374;50.196;8.050;2022-07-29T02:59:51;13.20;99.90
9175;DHT22;54374;50.196;8.050;2022-07-29T03:02:21;13.10;99.90
9175;DHT22;54374;50.196;8.050;2022-07-29T03:04:49;13.00;99.90
9175;DHT22;54374;50.196;8.050;2022-07-29T03:07:18;13.00;99.90
9175;DHT22;54374;50.196;8.050;2022-07-29T03:09:47;13.00;99.90
9175;DHT22;54374;50.196;8.050;2022-07-29T03:12:16;13.00;99.90
9175;DHT22;54374;50.196;8.050;2022-07-29T03:14:43;12.90;99.90
9175;DHT22;54374;50.196;8.050;2022-07-29T03:17:12;13.00;99.90
9175;DHT22;54374;50.196;8.050;2022-07-29T03:19:41;13.00;99.90
9175;DHT22;54374;50.196;8.050;2022-07-29T03:22:09;13.00;99.90
9175;DHT22;54374;50.196;8.050;2022-07-29T03:24:37;13.00;99.90
9175;DHT22;54374;50.196;8.050;2022-07-29T03:27:04;13.00;99.90
9175;DHT22;54374;50.196;8.050;2022-07-29T03:29:31;12.90;99.90
9175;DHT22;54374;50.196;8.050;2022-07-29T03:31:59;12.80;99.90
9175;DHT22;54374;50.196;8.050;2022-07-29T03:34:26;12.70;99.90
9175;DHT22;54374;50.196;8.050;2022-07-29T03:36:55;12.60;99.90
9175;DHT22;54374;50.196;8.050;2022-07-29T03:39:25;12.60;99.90
9175;DHT22;54374;50.196;8.050;2022-07-29T03:41:55;12.70;99.90
9175;DHT22;54374;50.196;8.050;2022-07-29T03:44:25;12.70;99.90
9175;DHT22;54374;50.196;8.050;2022-07-29T03:46:54;12.80;99.90
9175;DHT22;54374;50.196;8.050;2022-07-29T03:49:23;12.80;99.90
9175;DHT22;54374;50.196;8.050;2022-07-29T03:51:51;12.70;99.90
9175;DHT22;54374;50.196;8.050;2022-07-29T03:54:20;12.70;99.90
9175;DHT22;54374;50.196;8.050;2022-07-29T03:56:48;12.50;99.90
9175;DHT22;54374;50.196;8.050;2022-07-29T03:59:18;12.50;99.90
9175;DHT22;54374;50.196;8.050;2022-07-29T04:01:46;12.50;99.90
9175;DHT22;54374;50.196;8.050;2022-07-29T04:04:13;12.50;99.90
9175;DHT22;54374;50.196;8.050;2022-07-29T04:06:41;12.60;99.90
9175;DHT22;54374;50.196;8.050;2022-07-29T04:09:09;12.60;99.90
9175;DHT22;54374;50.196;8.050;2022-07-29T04:11:39;12.50;99.90
9175;DHT22;54374;50.196;8.050;2022-07-29T04:14:06;12.40;99.90
9175;DHT22;54374;50.196;8.050;2022-07-29T04:16:33;12.30;99.90
9175;DHT22;54374;50.196;8.050;2022-07-29T04:19:03;12.30;99.90
9175;DHT22;54374;50.196;8.050;2022-07-29T04:21:30;12.40;99.90
9175;DHT22;54374;50.196;8.050;2022-07-29T04:23:57;12.50;99.90
9175;DHT22;54374;50.196;8.050;2022-07-29T04:26:27;12.40;99.90
9175;DHT22;54374;50.196;8.050;2022-07-29T04:28:55;12.40;99.90
9175;DHT22;54374;50.196;8.050;2022-07-29T04:31:22;12.50;99.90
9175;DHT22;54374;50.196;8.050;2022-07-29T04:33:49;12.40;99.90
9175;DHT22;54374;50.196;8.050;2022-07-29T04:36:16;12.40;99.90
9175;DHT22;54374;50.196;8.050;2022-07-29T04:38:43;12.50;99.90
9175;DHT22;54374;50.196;8.050;2022-07-29T04:41:10;12.50;99.90
9175;DHT22;54374;50.196;8.050;2022-07-29T04:43:37;12.50;99.90
9175;DHT22;54374;50.196;8.050;2022-07-29T04:46:06;12.50;99.90
9175;DHT22;54374;50.196;8.050;2022-07-29T04:48:33;12.40;99.90
9175;DHT22;54374;50.196;8.050;2022-07-29T04:51:00;12.30;99.90
9175;DHT22;54374;50.196;8.050;2022-07-29T04:53:28;12.30;99.90
9175;DHT22;54374;50.196;8.050;2022-07-29T04:55:55;12.50;99.90
9175;DHT22;54374;50.196;8.050;2022-07-29T04:58:22;12.70;99.90
9175;DHT22;54374;50.196;8.050;2022-07-29T05:00:49;12.90;99.90
9175;DHT22;54374;50.196;8.050;2022-07-29T05:03:18;13.00;99.90
9175;DHT22;54374;50.196;8.050;2022-07-29T05:05:45;13.20;99.90
9175;DHT22;54374;50.196;8.050;2022-07-29T05:08:12;13.30;99.90
9175;DHT22;54374;50.196;8.050;2022-07-29T05:10:39;13.40;99.90
9175;DHT22;54374;50.196;8.050;2022-07-29T05:13:06;13.50;99.90
9175;DHT22;54374;50.196;8.050;2022-07-29T05:15:34;13.50;99.90
9175;DHT22;54374;50.196;8.050;2022-07-29T05:18:02;13.40;99.90
9175;DHT22;54374;50.196;8.050;2022-07-29T05:20:31;13.50;99.90
9175;DHT22;54374;50.196;8.050;2022-07-29T05:23:00;13.70;99.90
9175;DHT22;54374;50.196;8.050;2022-07-29T05:25:29;13.90;99.90
9175;DHT22;54374;50.196;8.050;2022-07-29T05:27:56;14.10;99.90
9175;DHT22;54374;50.196;8.050;2022-07-29T05:30:24;14.20;99.90
9175;DHT22;54374;50.196;8.050;2022-07-29T05:32:51;14.40;99.90
9175;DHT22;54374;50.196;8.050;2022-07-29T05:35:18;14.50;99.90
9175;DHT22;54374;50.196;8.050;2022-07-29T05:37:46;14.70;99.90
9175;DHT22;54374;50.196;8.050;2022-07-29T05:40:14;14.80;99.90
9175;DHT22;54374;50.196;8.050;2022-07-29T05:42:42;15.00;99.90
9175;DHT22;54374;50.196;8.050;2022-07-29T05:45:09;15.10;99.90
9175;DHT22;54374;50.196;8.050;2022-07-29T05:47:37;15.20;99.90
9175;DHT22;54374;50.196;8.050;2022-07-29T05:50:05;15.40;99.90
9175;DHT22;54374;50.196;8.050;2022-07-29T05:52:32;15.50;99.90
9175;DHT22;54374;50.196;8.050;2022-07-29T05:55:00;15.60;99.90
9175;DHT22;54374;50.196;8.050;2022-07-29T05:57:31;15.80;99.90
9175;DHT22;54374;50.196;8.050;2022-07-29T05:59:58;16.00;99.90
9175;DHT22;54374;50.196;8.050;2022-07-29T06:02:25;16.30;99.90
9175;DHT22;54374;50.196;8.050;2022-07-29T06:04:52;16.40;99.90
9175;DHT22;54374;50.196;8.050;2022-07-29T06:07:19;16.50;99.90
9175;DHT22;54374;50.196;8.050;2022-07-29T06:09:46;16.70;99.90
9175;DHT22;54374;50.196;8.050;2022-07-29T06:12:15;17.00;99.90
9175;DHT22;54374;50.196;8.050;2022-07-29T06:14:42;17.30;99.90
9175;DHT22;54374;50.196;8.050;2022-07-29T06:17:09;17.50;99.90
9175;DHT22;54374;50.196;8.050;2022-07-29T06:19:38;17.80;99.90
9175;DHT22;54374;50.196;8.050;2022-07-29T06:22:06;18.10;99.90
9175;DHT22;54374;50.196;8.050;2022-07-29T06:24:33;18.20;99.90
9175;DHT22;54374;50.196;8.050;2022-07-29T06:27:00;18.20;99.90
9175;DHT22;54374;50.196;8.050;2022-07-29T06:29:29;18.40;99.90
9175;DHT22;54374;50.196;8.050;2022-07-29T06:31:56;18.50;99.90
9175;DHT22;54374;50.196;8.050;2022-07-29T06:34:23;18.60;99.90
9175;DHT22;54374;50.196;8.050;2022-07-29T06:36:51;18.90;99.90
9175;DHT22;54374;50.196;8.050;2022-07-29T06:39:18;19.00;99.90
9175;DHT22;54374;50.196;8.050;2022-07-29T06:41:46;19.20;99.90
9175;DHT22;54374;50.196;8.050;2022-07-29T06:44:14;19.30;99.90
9175;DHT22;54374;50.196;8.050;2022-07-29T06:46:43;19.30;99.90
9175;DHT22;54374;50.196;8.050;2022-07-29T06:49:10;19.20;99.90
9175;DHT22;54374;50.196;8.050;2022-07-29T06:51:38;19.30;99.90
9175;DHT22;54374;50.196;8.050;2022-07-29T06:54:05;19.30;99.90
9175;DHT22;54374;50.196;8.050;2022-07-29T06:56:34;19.40;99.90
9175;DHT22;54374;50.196;8.050;2022-07-29T06:59:02;19.50;99.90
9175;DHT22;54374;50.196;8.050;2022-07-29T07:01:30;19.70;99.90
9175;DHT22;54374;50.196;8.050;2022-07-29T07:03:58;19.80;99.90
9175;DHT22;54374;50.196;8.050;2022-07-29T07:06:25;19.90;99.90
9175;DHT22;54374;50.196;8.050;2022-07-29T07:08:52;19.90;99.90
9175;DHT22;54374;50.196;8.050;2022-07-29T07:11:19;20.10;99.90
9175;DHT22;54374;50.196;8.050;2022-07-29T07:13:47;20.10;99.90
9175;DHT22;54374;50.196;8.050;2022-07-29T07:16:15;20.20;99.90
9175;DHT22;54374;50.196;8.050;2022-07-29T07:18:42;20.10;99.90
9175;DHT22;54374;50.196;8.050;2022-07-29T07:21:12;20.10;99.90
9175;DHT22;54374;50.196;8.050;2022-07-29T07:23:39;20.20;99.90
9175;DHT22;54374;50.196;8.050;2022-07-29T07:26:06;20.30;99.90
9175;DHT22;54374;50.196;8.050;2022-07-29T07:28:33;20.40;99.90
9175;DHT22;54374;50.196;8.050;2022-07-29T07:31:00;20.40;99.90
9175;DHT22;54374;50.196;8.050;2022-07-29T07:33:28;20.50;99.90
9175;DHT22;54374;50.196;8.050;2022-07-29T07:35:55;20.50;99.90
9175;DHT22;54374;50.196;8.050;2022-07-29T07:38:24;20.70;99.90
9175;DHT22;54374;50.196;8.050;2022-07-29T07:40:51;20.80;99.90
9175;DHT22;54374;50.196;8.050;2022-07-29T07:43:18;20.90;99.90
9175;DHT22;54374;50.196;8.050;2022-07-29T07:45:45;21.20;99.90
9175;DHT22;54374;50.196;8.050;2022-07-29T07:48:12;21.50;99.90
9175;DHT22;54374;50.196;8.050;2022-07-29T07:50:39;21.60;99.90
9175;DHT22;54374;50.196;8.050;2022-07-29T07:53:06;21.70;99.90
9175;DHT22;54374;50.196;8.050;2022-07-29T07:55:39;21.70;99.90
9175;DHT22;54374;50.196;8.050;2022-07-29T07:58:06;21.60;99.90
9175;DHT22;54374;50.196;8.050;2022-07-29T08:00:34;21.60;99.90
9175;DHT22;54374;50.196;8.050;2022-07-29T08:03:03;21.80;99.90
9175;DHT22;54374;50.196;8.050;2022-07-29T08:05:30;21.90;99.90
9175;DHT22;54374;50.196;8.050;2022-07-29T08:07:58;22.10;99.90
9175;DHT22;54374;50.196;8.050;2022-07-29T08:10:25;22.20;99.90
9175;DHT22;54374;50.196;8.050;2022-07-29T08:13:11;22.20;99.90
9175;DHT22;54374;50.196;8.050;2022-07-29T08:15:39;22.20;99.90
9175;DHT22;54374;50.196;8.050;2022-07-29T08:18:07;22.20;99.90
9175;DHT22;54374;50.196;8.050;2022-07-29T08:20:38;22.20;99.90
9175;DHT22;54374;50.196;8.050;2022-07-29T08:23:07;22.20;99.90
9175;DHT22;54374;50.196;8.050;2022-07-29T08:25:36;22.20;99.90
9175;DHT22;54374;50.196;8.050;2022-07-29T08:28:04;22.20;99.90
9175;DHT22;54374;50.196;8.050;2022-07-29T08:30:32;22.20;99.90
9175;DHT22;54374;50.196;8.050;2022-07-29T08:32:59;22.20;99.90
9175;DHT22;54374;50.196;8.050;2022-07-29T08:35:28;22.20;99.90
9175;DHT22;54374;50.196;8.050;2022-07-29T08:37:55;22.20;99.90
9175;DHT22;54374;50.196;8.050;2022-07-29T08:40:23;22.20;99.90
9175;DHT22;54374;50.196;8.050;2022-07-29T08:42:50;22.40;99.90
9175;DHT22;54374;50.196;8.050;2022-07-29T08:45:17;22.50;99.90
9175;DHT22;54374;50.196;8.050;2022-07-29T08:47:46;22.50;99.90
9175;DHT22;54374;50.196;8.050;2022-07-29T08:50:13;22.60;99.90
9175;DHT22;54374;50.196;8.050;2022-07-29T08:52:41;22.60;99.90
9175;DHT22;54374;50.196;8.050;2022-07-29T08:55:09;22.70;99.90
9175;DHT22;54374;50.196;8.050;2022-07-29T08:57:38;22.70;99.90
9175;DHT22;54374;50.196;8.050;2022-07-29T09:00:07;22.60;99.90
9175;DHT22;54374;50.196;8.050;2022-07-29T09:02:40;22.50;99.90
9175;DHT22;54374;50.196;8.050;2022-07-29T09:05:09;22.50;99.90
9175;DHT22;54374;50.196;8.050;2022-07-29T09:07:39;22.40;99.90
9175;DHT22;54374;50.196;8.050;2022-07-29T09:10:09;22.50;99.90
9175;DHT22;54374;50.196;8.050;2022-07-29T09:12:36;22.50;99.90
9175;DHT22;54374;50.196;8.050;2022-07-29T09:15:04;22.50;99.90
9175;DHT22;54374;50.196;8.050;2022-07-29T09:17:40;22.50;99.90
9175;DHT22;54374;50.196;8.050;2022-07-29T09:20:13;22.70;99.90
9175;DHT22;54374;50.196;8.050;2022-07-29T09:22:41;22.80;99.90
9175;DHT22;54374;50.196;8.050;2022-07-29T09:25:08;23.00;99.90
9175;DHT22;54374;50.196;8.050;2022-07-29T09:27:38;23.10;99.90
9175;DHT22;54374;50.196;8.050;2022-07-29T09:30:07;23.10;99.90
9175;DHT22;54374;50.196;8.050;2022-07-29T09:32:54;23.10;99.90
9175;DHT22;54374;50.196;8.050;2022-07-29T09:35:24;23.10;99.90
9175;DHT22;54374;50.196;8.050;2022-07-29T09:37:52;23.20;99.90
9175;DHT22;54374;50.196;8.050;2022-07-29T09:40:21;23.40;99.90
9175;DHT22;54374;50.196;8.050;2022-07-29T09:42:49;23.70;99.90
9175;DHT22;54374;50.196;8.050;2022-07-29T09:45:27;24.10;99.90
9175;DHT22;54374;50.196;8.050;2022-07-29T09:47:55;24.30;99.90
9175;DHT22;54374;50.196;8.050;2022-07-29T09:50:37;24.60;99.90
9175;DHT22;54374;50.196;8.050;2022-07-29T09:53:05;25.20;99.90
9175;DHT22;54374;50.196;8.050;2022-07-29T09:55:46;25.30;99.90
9175;DHT22;54374;50.196;8.050;2022-07-29T09:58:16;25.40;99.90
9175;DHT22;54374;50.196;8.050;2022-07-29T10:00:44;25.50;99.90
9175;DHT22;54374;50.196;8.050;2022-07-29T10:03:12;25.60;99.90
9175;DHT22;54374;50.196;8.050;2022-07-29T10:05:40;25.60;99.90
9175;DHT22;54374;50.196;8.050;2022-07-29T10:08:10;25.70;99.90
9175;DHT22;54374;50.196;8.050;2022-07-29T10:10:39;25.80;99.90
9175;DHT22;54374;50.196;8.050;2022-07-29T10:13:09;25.60;99.90
9175;DHT22;54374;50.196;8.050;2022-07-29T10:15:38;25.50;99.90
9175;DHT22;54374;50.196;8.050;2022-07-29T10:18:07;25.60;99.90
9175;DHT22;54374;50.196;8.050;2022-07-29T10:20:35;25.50;99.90
9175;DHT22;54374;50.196;8.050;2022-07-29T10:23:05;25.40;99.90
9175;DHT22;54374;50.196;8.050;2022-07-29T10:25:32;25.20;99.90
9175;DHT22;54374;50.196;8.050;2022-07-29T10:27:59;24.90;99.90
9175;DHT22;54374;50.196;8.050;2022-07-29T10:30:27;24.90;99.90
9175;DHT22;54374;50.196;8.050;2022-07-29T10:33:11;24.90;99.90
9175;DHT22;54374;50.196;8.050;2022-07-29T10:36:02;24.90;99.90
9175;DHT22;54374;50.196;8.050;2022-07-29T10:38:48;25.20;99.90
9175;DHT22;54374;50.196;8.050;2022-07-29T10:41:43;25.20;99.90
9175;DHT22;54374;50.196;8.050;2022-07-29T10:44:15;25.20;99.90
9175;DHT22;54374;50.196;8.050;2022-07-29T10:46:43;25.20;99.90
9175;DHT22;54374;50.196;8.050;2022-07-29T10:49:12;25.20;99.90
9175;DHT22;54374;50.196;8.050;2022-07-29T10:52:10;25.30;99.90
9175;DHT22;54374;50.196;8.050;2022-07-29T10:54:46;25.30;99.90
9175;DHT22;54374;50.196;8.050;2022-07-29T10:57:26;25.40;99.90
9175;DHT22;54374;50.196;8.050;2022-07-29T11:00:30;25.60;99.90
9175;DHT22;54374;50.196;8.050;2022-07-29T11:02:58;25.70;99.90
9175;DHT22;54374;50.196;8.050;2022-07-29T11:05:27;25.60;99.90
9175;DHT22;54374;50.196;8.050;2022-07-29T11:08:24;25.60;99.90
9175;DHT22;54374;50.196;8.050;2022-07-29T11:14:03;25.90;99.90
9175;DHT22;54374;50.196;8.050;2022-07-29T11:16:58;25.90;99.90
9175;DHT22;54374;50.196;8.050;2022-07-29T11:19:26;26.00;99.90
9175;DHT22;54374;50.196;8.050;2022-07-29T11:21:54;25.90;99.90
9175;DHT22;54374;50.196;8.050;2022-07-29T11:24:22;26.00;99.90
9175;DHT22;54374;50.196;8.050;2022-07-29T11:27:16;26.00;99.90
9175;DHT22;54374;50.196;8.050;2022-07-29T11:29:56;25.80;99.90
9175;DHT22;54374;50.196;8.050;2022-07-29T11:32:36;26.00;99.90
9175;DHT22;54374;50.196;8.050;2022-07-29T11:35:15;26.00;99.90
9175;DHT22;54374;50.196;8.050;2022-07-29T11:37:43;26.10;99.90
9175;DHT22;54374;50.196;8.050;2022-07-29T11:40:19;26.20;99.90
9175;DHT22;54374;50.196;8.050;2022-07-29T11:42:48;26.10;99.90
9175;DHT22;54374;50.196;8.050;2022-07-29T11:45:45;26.20;99.90
9175;DHT22;54374;50.196;8.050;2022-07-29T11:48:18;26.30;99.90
9175;DHT22;54374;50.196;8.050;2022-07-29T11:50:45;26.20;99.60
9175;DHT22;54374;50.196;8.050;2022-07-29T11:53:13;26.10;99.50
9175;DHT22;54374;50.196;8.050;2022-07-29T11:55:40;26.00;99.70
9175;DHT22;54374;50.196;8.050;2022-07-29T11:58:08;25.90;99.80
9175;DHT22;54374;50.196;8.050;2022-07-29T12:00:36;25.90;99.90
9175;DHT22;54374;50.196;8.050;2022-07-29T12:03:07;26.00;99.90
9175;DHT22;54374;50.196;8.050;2022-07-29T12:05:37;26.10;99.90
9175;DHT22;54374;50.196;8.050;2022-07-29T12:08:06;26.20;99.60
9175;DHT22;54374;50.196;8.050;2022-07-29T12:10:33;26.20;99.90
9175;DHT22;54374;50.196;8.050;2022-07-29T12:13:01;26.10;99.90
9175;DHT22;54374;50.196;8.050;2022-07-29T12:15:28;26.00;99.90
9175;DHT22;54374;50.196;8.050;2022-07-29T12:17:55;25.90;99.90
9175;DHT22;54374;50.196;8.050;2022-07-29T12:20:25;26.00;99.90
9175;DHT22;54374;50.196;8.050;2022-07-29T12:22:54;26.10;99.90
9175;DHT22;54374;50.196;8.050;2022-07-29T12:25:23;26.20;99.90
9175;DHT22;54374;50.196;8.050;2022-07-29T12:28:00;26.40;99.60
9175;DHT22;54374;50.196;8.050;2022-07-29T12:30:40;26.70;99.70
9175;DHT22;54374;50.196;8.050;2022-07-29T12:33:12;26.90;99.00
9175;DHT22;54374;50.196;8.050;2022-07-29T12:35:42;27.00;99.20
9175;DHT22;54374;50.196;8.050;2022-07-29T12:38:10;26.80;99.80
9175;DHT22;54374;50.196;8.050;2022-07-29T12:40:37;26.80;98.50
9175;DHT22;54374;50.196;8.050;2022-07-29T12:43:09;26.70;99.80
9175;DHT22;54374;50.196;8.050;2022-07-29T12:45:36;26.70;98.60
9175;DHT22;54374;50.196;8.050;2022-07-29T12:48:05;26.70;99.00
9175;DHT22;54374;50.196;8.050;2022-07-29T12:50:34;26.50;98.70
9175;DHT22;54374;50.196;8.050;2022-07-29T12:53:11;26.40;98.70
9175;DHT22;54374;50.196;8.050;2022-07-29T12:55:43;26.30;99.00
9175;DHT22;54374;50.196;8.050;2022-07-29T12:58:25;26.20;98.70
9175;DHT22;54374;50.196;8.050;2022-07-29T13:01:03;26.10;99.90
9175;DHT22;54374;50.196;8.050;2022-07-29T13:03:49;26.10;99.90
9175;DHT22;54374;50.196;8.050;2022-07-29T13:06:34;25.90;99.90
9175;DHT22;54374;50.196;8.050;2022-07-29T13:09:12;25.20;99.90
9175;DHT22;54374;50.196;8.050;2022-07-29T13:11:41;24.50;99.90
9175;DHT22;54374;50.196;8.050;2022-07-29T13:14:11;24.10;99.90
9175;DHT22;54374;50.196;8.050;2022-07-29T13:17:01;23.50;99.90
9175;DHT22;54374;50.196;8.050;2022-07-29T13:19:35;22.90;99.90
9175;DHT22;54374;50.196;8.050;2022-07-29T13:22:02;22.50;99.90
9175;DHT22;54374;50.196;8.050;2022-07-29T13:24:32;22.20;99.90
9175;DHT22;54374;50.196;8.050;2022-07-29T13:26:59;21.80;99.90
9175;DHT22;54374;50.196;8.050;2022-07-29T13:29:26;21.50;99.90
9175;DHT22;54374;50.196;8.050;2022-07-29T13:31:53;21.30;99.90
9175;DHT22;54374;50.196;8.050;2022-07-29T13:34:21;21.20;99.90
9175;DHT22;54374;50.196;8.050;2022-07-29T13:36:49;21.30;99.90
9175;DHT22;54374;50.196;8.050;2022-07-29T13:39:17;21.40;99.90
9175;DHT22;54374;50.196;8.050;2022-07-29T13:41:46;21.40;99.90
9175;DHT22;54374;50.196;8.050;2022-07-29T13:44:13;21.50;99.90
9175;DHT22;54374;50.196;8.050;2022-07-29T13:46:40;21.60;99.90
9175;DHT22;54374;50.196;8.050;2022-07-29T13:49:07;21.80;99.90
9175;DHT22;54374;50.196;8.050;2022-07-29T13:51:34;21.90;99.90
9175;DHT22;54374;50.196;8.050;2022-07-29T13:54:01;22.00;99.90
9175;DHT22;54374;50.196;8.050;2022-07-29T13:56:28;22.10;99.90
9175;DHT22;54374;50.196;8.050;2022-07-29T13:58:57;22.20;99.90
9175;DHT22;54374;50.196;8.050;2022-07-29T14:01:24;22.40;99.90
9175;DHT22;54374;50.196;8.050;2022-07-29T14:03:52;23.90;99.90
9175;DHT22;54374;50.196;8.050;2022-07-29T14:06:19;22.60;99.90
9175;DHT22;54374;50.196;8.050;2022-07-29T14:08:47;22.70;99.90
9175;DHT22;54374;50.196;8.050;2022-07-29T14:11:14;23.00;99.90
9175;DHT22;54374;50.196;8.050;2022-07-29T14:13:41;23.00;99.90
9175;DHT22;54374;50.196;8.050;2022-07-29T14:16:09;23.10;99.90
9175;DHT22;54374;50.196;8.050;2022-07-29T14:18:36;23.10;99.90
9175;DHT22;54374;50.196;8.050;2022-07-29T14:21:05;23.10;99.90
9175;DHT22;54374;50.196;8.050;2022-07-29T14:23:32;23.20;99.90
9175;DHT22;54374;50.196;8.050;2022-07-29T14:26:00;23.10;99.90
9175;DHT22;54374;50.196;8.050;2022-07-29T14:28:27;23.10;99.90
9175;DHT22;54374;50.196;8.050;2022-07-29T14:30:54;23.10;99.90
9175;DHT22;54374;50.196;8.050;2022-07-29T14:33:22;23.20;99.90
9175;DHT22;54374;50.196;8.050;2022-07-29T14:35:49;23.20;99.90
9175;DHT22;54374;50.196;8.050;2022-07-29T14:38:16;23.40;99.90
9175;DHT22;54374;50.196;8.050;2022-07-29T14:40:44;23.50;99.90
9175;DHT22;54374;50.196;8.050;2022-07-29T14:43:12;23.60;99.90
9175;DHT22;54374;50.196;8.050;2022-07-29T14:45:39;23.60;99.90
9175;DHT22;54374;50.196;8.050;2022-07-29T14:48:06;23.60;99.90
9175;DHT22;54374;50.196;8.050;2022-07-29T14:50:35;23.70;99.90
9175;DHT22;54374;50.196;8.050;2022-07-29T14:53:02;23.90;99.90
9175;DHT22;54374;50.196;8.050;2022-07-29T14:55:29;23.90;99.90
9175;DHT22;54374;50.196;8.050;2022-07-29T14:57:57;24.00;99.90
9175;DHT22;54374;50.196;8.050;2022-07-29T15:00:25;23.80;99.90
9175;DHT22;54374;50.196;8.050;2022-07-29T15:02:53;23.90;99.90
9175;DHT22;54374;50.196;8.050;2022-07-29T15:05:22;23.90;99.90
9175;DHT22;54374;50.196;8.050;2022-07-29T15:07:51;24.00;99.90
9175;DHT22;54374;50.196;8.050;2022-07-29T15:10:19;23.90;99.90
9175;DHT22;54374;50.196;8.050;2022-07-29T15:12:46;23.90;99.90
9175;DHT22;54374;50.196;8.050;2022-07-29T15:15:14;23.80;99.90
9175;DHT22;54374;50.196;8.050;2022-07-29T15:17:42;23.70;99.90
9175;DHT22;54374;50.196;8.050;2022-07-29T15:20:10;23.60;99.90
9175;DHT22;54374;50.196;8.050;2022-07-29T15:22:38;23.50;99.90
9175;DHT22;54374;50.196;8.050;2022-07-29T15:25:08;23.40;99.90
9175;DHT22;54374;50.196;8.050;2022-07-29T15:27:37;21.80;99.90
9175;DHT22;54374;50.196;8.050;2022-07-29T15:30:05;23.50;99.90
9175;DHT22;54374;50.196;8.050;2022-07-29T15:32:33;23.50;99.90
9175;DHT22;54374;50.196;8.050;2022-07-29T15:35:00;23.60;99.90
9175;DHT22;54374;50.196;8.050;2022-07-29T15:37:27;23.70;99.90
9175;DHT22;54374;50.196;8.050;2022-07-29T15:39:55;23.90;99.90
9175;DHT22;54374;50.196;8.050;2022-07-29T15:42:23;24.00;99.90
9175;DHT22;54374;50.196;8.050;2022-07-29T15:44:50;24.10;99.90
9175;DHT22;54374;50.196;8.050;2022-07-29T15:47:17;24.20;99.90
9175;DHT22;54374;50.196;8.050;2022-07-29T15:49:44;24.40;99.90
9175;DHT22;54374;50.196;8.050;2022-07-29T15:52:12;24.50;99.90
9175;DHT22;54374;50.196;8.050;2022-07-29T15:54:39;24.40;99.90
9175;DHT22;54374;50.196;8.050;2022-07-29T15:57:07;24.40;99.90
9175;DHT22;54374;50.196;8.050;2022-07-29T15:59:38;24.30;99.90
9175;DHT22;54374;50.196;8.050;2022-07-29T16:02:06;24.20;99.90
9175;DHT22;54374;50.196;8.050;2022-07-29T16:04:33;24.00;99.90
9175;DHT22;54374;50.196;8.050;2022-07-29T16:07:00;23.90;99.90